sensor_id;sensor_type;location;lat;lon;timestamp;temperature;humidity
39347;DHT22;26262;49.836;6.632;2022-12-18T00:01:46;-8.00;99.90
39347;DHT22;26262;49.836;6.632;2022-12-18T00:04:20;-8.00;99.90
39347;DHT22;26262;49.836;6.632;2022-12-18T00:06:46;-8.10;99.90
39347;DHT22;26262;49.836;6.632;2022-12-18T00:09:11;-8.20;99.90
39347;DHT22;26262;49.836;6.632;2022-12-18T00:11:37;-8.20;99.90
39347;DHT22;26262;49.836;6.632;2022-12-18T00:14:02;-8.20;99.90
39347;DHT22;26262;49.836;6.632;2022-12-18T00:16:29;-8.30;99.90
39347;DHT22;26262;49.836;6.632;2022-12-18T00:18:57;-8.40;99.90
39347;DHT22;26262;49.836;6.632;2022-12-18T00:21:22;-8.30;99.90
39347;DHT22;26262;49.836;6.632;2022-12-18T00:23:49;-8.30;99.90
39347;DHT22;26262;49.836;6.632;2022-12-18T00:26:18;-8.20;99.90
39347;DHT22;26262;49.836;6.632;2022-12-18T00:28:45;-8.20;99.90
39347;DHT22;26262;49.836;6.632;2022-12-18T00:31:12;-8.20;99.90
39347;DHT22;26262;49.836;6.632;2022-12-18T00:33:38;-8.10;99.90
39347;DHT22;26262;49.836;6.632;2022-12-18T00:38:35;-8.40;99.90
39347;DHT22;26262;49.836;6.632;2022-12-18T00:41:01;-8.30;99.90
39347;DHT22;26262;49.836;6.632;2022-12-18T00:43:27;-8.20;99.90
39347;DHT22;26262;49.836;6.632;2022-12-18T00:45:53;-8.40;99.90
39347;DHT22;26262;49.836;6.632;2022-12-18T00:48:18;-8.30;99.90
39347;DHT22;26262;49.836;6.632;2022-12-18T00:50:44;-8.20;99.90
39347;DHT22;26262;49.836;6.632;2022-12-18T00:53:10;-8.20;99.90
39347;DHT22;26262;49.836;6.632;2022-12-18T00:55:37;-8.20;99.90
39347;DHT22;26262;49.836;6.632;2022-12-18T00:58:04;-8.20;99.90
39347;DHT22;26262;49.836;6.632;2022-12-18T01:00:29;-8.20;99.90
39347;DHT22;26262;49.836;6.632;2022-12-18T01:02:55;-8.20;99.90
39347;DHT22;26262;49.836;6.632;2022-12-18T01:05:21;-8.20;99.90
39347;DHT22;26262;49.836;6.632;2022-12-18T01:07:46;-8.30;99.90
39347;DHT22;26262;49.836;6.632;2022-12-18T01:10:12;-8.60;99.90
39347;DHT22;26262;49.836;6.632;2022-12-18T01:12:38;-8.80;99.90
39347;DHT22;26262;49.836;6.632;2022-12-18T01:15:04;-8.70;99.90
39347;DHT22;26262;49.836;6.632;2022-12-18T01:17:30;-8.60;99.90
39347;DHT22;26262;49.836;6.632;2022-12-18T01:19:56;-8.50;99.90
39347;DHT22;26262;49.836;6.632;2022-12-18T01:22:21;-8.40;99.90
39347;DHT22;26262;49.836;6.632;2022-12-18T01:24:47;-8.40;99.90
39347;DHT22;26262;49.836;6.632;2022-12-18T01:27:12;-8.40;99.90
39347;DHT22;26262;49.836;6.632;2022-12-18T01:29:38;-8.40;99.90
39347;DHT22;26262;49.836;6.632;2022-12-18T01:32:03;-8.30;99.90
39347;DHT22;26262;49.836;6.632;2022-12-18T01:34:29;-8.30;99.90
39347;DHT22;26262;49.836;6.632;2022-12-18T01:36:55;-8.30;99.90
39347;DHT22;26262;49.836;6.632;2022-12-18T01:39:20;-8.70;99.90
39347;DHT22;26262;49.836;6.632;2022-12-18T01:41:46;-9.00;99.90
39347;DHT22;26262;49.836;6.632;2022-12-18T01:44:58;-9.00;99.90
39347;DHT22;26262;49.836;6.632;2022-12-18T01:49:56;-9.00;99.90
39347;DHT22;26262;49.836;6.632;2022-12-18T01:52:24;-8.80;99.90
39347;DHT22;26262;49.836;6.632;2022-12-18T01:54:52;-8.80;99.90
39347;DHT22;26262;49.836;6.632;2022-12-18T01:57:18;-8.70;99.90
39347;DHT22;26262;49.836;6.632;2022-12-18T01:59:49;-8.60;99.90
39347;DHT22;26262;49.836;6.632;2022-12-18T02:02:16;-8.60;99.90
39347;DHT22;26262;49.836;6.632;2022-12-18T02:04:42;-8.50;99.90
39347;DHT22;26262;49.836;6.632;2022-12-18T02:10:07;-8.50;99.90
39347;DHT22;26262;49.836;6.632;2022-12-18T02:12:49;-8.60;99.90
39347;DHT22;26262;49.836;6.632;2022-12-18T02:15:47;-8.60;99.90
39347;DHT22;26262;49.836;6.632;2022-12-18T02:18:21;-8.60;99.90
39347;DHT22;26262;49.836;6.632;2022-12-18T02:23:56;-8.60;99.90
39347;DHT22;26262;49.836;6.632;2022-12-18T02:26:34;-8.60;99.90
39347;DHT22;26262;49.836;6.632;2022-12-18T02:29:07;-8.70;99.90
39347;DHT22;26262;49.836;6.632;2022-12-18T02:31:38;-8.90;99.90
39347;DHT22;26262;49.836;6.632;2022-12-18T02:34:07;-8.80;99.90
39347;DHT22;26262;49.836;6.632;2022-12-18T02:36:34;-8.80;99.90
39347;DHT22;26262;49.836;6.632;2022-12-18T02:39:02;-8.90;99.90
39347;DHT22;26262;49.836;6.632;2022-12-18T02:41:30;-8.90;99.90
39347;DHT22;26262;49.836;6.632;2022-12-18T02:44:01;-8.80;99.90
39347;DHT22;26262;49.836;6.632;2022-12-18T02:49:17;-8.80;99.90
39347;DHT22;26262;49.836;6.632;2022-12-18T02:51:57;-8.80;99.90
39347;DHT22;26262;49.836;6.632;2022-12-18T02:57:54;-8.80;99.90
39347;DHT22;26262;49.836;6.632;2022-12-18T03:00:28;-8.80;99.90
39347;DHT22;26262;49.836;6.632;2022-12-18T03:03:04;-9.10;99.90
39347;DHT22;26262;49.836;6.632;2022-12-18T03:05:36;-9.20;99.90
39347;DHT22;26262;49.836;6.632;2022-12-18T03:10:34;-9.40;99.90
39347;DHT22;26262;49.836;6.632;2022-12-18T03:13:09;-9.30;99.90
39347;DHT22;26262;49.836;6.632;2022-12-18T03:15:42;-9.20;99.90
39347;DHT22;26262;49.836;6.632;2022-12-18T03:18:37;-9.10;99.90
39347;DHT22;26262;49.836;6.632;2022-12-18T03:21:06;-9.10;99.90
39347;DHT22;26262;49.836;6.632;2022-12-18T03:23:39;-9.20;99.90
39347;DHT22;26262;49.836;6.632;2022-12-18T03:26:09;-9.10;99.90
39347;DHT22;26262;49.836;6.632;2022-12-18T03:28:38;-9.00;99.90
39347;DHT22;26262;49.836;6.632;2022-12-18T03:31:06;-9.00;99.90
39347;DHT22;26262;49.836;6.632;2022-12-18T03:33:55;-9.00;99.90
39347;DHT22;26262;49.836;6.632;2022-12-18T03:36:23;-9.20;99.90
39347;DHT22;26262;49.836;6.632;2022-12-18T03:38:49;-9.20;99.90
39347;DHT22;26262;49.836;6.632;2022-12-18T03:41:46;-9.10;99.90
39347;DHT22;26262;49.836;6.632;2022-12-18T03:44:19;-9.10;99.90
39347;DHT22;26262;49.836;6.632;2022-12-18T03:47:09;-9.00;99.90
39347;DHT22;26262;49.836;6.632;2022-12-18T03:49:51;-9.00;99.90
39347;DHT22;26262;49.836;6.632;2022-12-18T03:55:01;-9.10;99.90
39347;DHT22;26262;49.836;6.632;2022-12-18T03:57:30;-9.50;99.90
39347;DHT22;26262;49.836;6.632;2022-12-18T04:00:04;-9.70;99.90
39347;DHT22;26262;49.836;6.632;2022-12-18T04:02:30;-9.50;99.90
39347;DHT22;26262;49.836;6.632;2022-12-18T04:04:59;-9.40;99.90
39347;DHT22;26262;49.836;6.632;2022-12-18T04:07:27;-9.30;99.90
39347;DHT22;26262;49.836;6.632;2022-12-18T04:09:56;-9.30;99.90
39347;DHT22;26262;49.836;6.632;2022-12-18T04:12:29;-9.20;99.90
39347;DHT22;26262;49.836;6.632;2022-12-18T04:14:55;-9.20;99.90
39347;DHT22;26262;49.836;6.632;2022-12-18T04:17:20;-9.20;99.90
39347;DHT22;26262;49.836;6.632;2022-12-18T04:19:46;-9.10;99.90
39347;DHT22;26262;49.836;6.632;2022-12-18T04:22:12;-9.10;99.90
39347;DHT22;26262;49.836;6.632;2022-12-18T04:24:38;-9.20;99.90
39347;DHT22;26262;49.836;6.632;2022-12-18T04:27:04;-9.20;99.90
39347;DHT22;26262;49.836;6.632;2022-12-18T04:29:29;-9.40;99.90
39347;DHT22;26262;49.836;6.632;2022-12-18T04:31:55;-9.70;99.90
39347;DHT22;26262;49.836;6.632;2022-12-18T04:34:21;-9.70;99.90
39347;DHT22;26262;49.836;6.632;2022-12-18T04:36:46;-10.10;99.90
39347;DHT22;26262;49.836;6.632;2022-12-18T04:39:12;-9.90;99.90
39347;DHT22;26262;49.836;6.632;2022-12-18T04:41:37;-9.70;99.90
39347;DHT22;26262;49.836;6.632;2022-12-18T04:44:04;-9.60;99.90
39347;DHT22;26262;49.836;6.632;2022-12-18T04:46:29;-9.50;99.90
39347;DHT22;26262;49.836;6.632;2022-12-18T04:48:55;-9.40;99.90
39347;DHT22;26262;49.836;6.632;2022-12-18T04:51:20;-9.40;99.90
39347;DHT22;26262;49.836;6.632;2022-12-18T04:53:46;-9.30;99.90
39347;DHT22;26262;49.836;6.632;2022-12-18T04:56:14;-9.40;99.90
39347;DHT22;26262;49.836;6.632;2022-12-18T04:58:41;-9.30;99.90
39347;DHT22;26262;49.836;6.632;2022-12-18T05:01:07;-9.40;99.90
39347;DHT22;26262;49.836;6.632;2022-12-18T05:03:34;-9.40;99.90
39347;DHT22;26262;49.836;6.632;2022-12-18T05:06:00;-9.30;99.90
39347;DHT22;26262;49.836;6.632;2022-12-18T05:08:26;-9.30;99.90
39347;DHT22;26262;49.836;6.632;2022-12-18T05:11:03;-9.30;99.90
39347;DHT22;26262;49.836;6.632;2022-12-18T05:13:29;-9.30;99.90
39347;DHT22;26262;49.836;6.632;2022-12-18T05:15:55;-9.30;99.90
39347;DHT22;26262;49.836;6.632;2022-12-18T05:18:21;-9.40;99.90
39347;DHT22;26262;49.836;6.632;2022-12-18T05:20:47;-9.30;99.90
39347;DHT22;26262;49.836;6.632;2022-12-18T05:23:13;-9.30;99.90
39347;DHT22;26262;49.836;6.632;2022-12-18T05:25:38;-9.30;99.90
39347;DHT22;26262;49.836;6.632;2022-12-18T05:28:04;-9.40;99.90
39347;DHT22;26262;49.836;6.632;2022-12-18T05:30:29;-9.30;99.90
39347;DHT22;26262;49.836;6.632;2022-12-18T05:32:55;-9.40;99.90
39347;DHT22;26262;49.836;6.632;2022-12-18T05:35:20;-9.40;99.90
39347;DHT22;26262;49.836;6.632;2022-12-18T05:37:46;-9.70;99.90
39347;DHT22;26262;49.836;6.632;2022-12-18T05:40:12;-10.10;99.90
39347;DHT22;26262;49.836;6.632;2022-12-18T05:42:38;-10.20;99.90
39347;DHT22;26262;49.836;6.632;2022-12-18T05:45:04;-10.00;99.90
39347;DHT22;26262;49.836;6.632;2022-12-18T05:47:30;-9.90;99.90
39347;DHT22;26262;49.836;6.632;2022-12-18T05:49:55;-9.70;99.90
39347;DHT22;26262;49.836;6.632;2022-12-18T05:52:21;-9.70;99.90
39347;DHT22;26262;49.836;6.632;2022-12-18T05:54:47;-9.70;99.90
39347;DHT22;26262;49.836;6.632;2022-12-18T05:57:12;-9.60;99.90
39347;DHT22;26262;49.836;6.632;2022-12-18T05:59:38;-9.50;99.90
39347;DHT22;26262;49.836;6.632;2022-12-18T06:02:03;-9.50;99.90
39347;DHT22;26262;49.836;6.632;2022-12-18T06:04:29;-9.70;99.90
39347;DHT22;26262;49.836;6.632;2022-12-18T06:06:54;-9.60;99.90
39347;DHT22;26262;49.836;6.632;2022-12-18T06:09:20;-9.60;99.90
39347;DHT22;26262;49.836;6.632;2022-12-18T06:11:45;-9.60;99.90
39347;DHT22;26262;49.836;6.632;2022-12-18T06:14:11;-9.50;99.90
39347;DHT22;26262;49.836;6.632;2022-12-18T06:16:36;-9.50;99.90
39347;DHT22;26262;49.836;6.632;2022-12-18T06:19:05;-9.50;99.90
39347;DHT22;26262;49.836;6.632;2022-12-18T06:21:31;-9.50;99.90
39347;DHT22;26262;49.836;6.632;2022-12-18T06:23:57;-9.40;99.90
39347;DHT22;26262;49.836;6.632;2022-12-18T06:26:23;-9.40;99.90
39347;DHT22;26262;49.836;6.632;2022-12-18T06:28:49;-9.40;99.90
39347;DHT22;26262;49.836;6.632;2022-12-18T06:31:14;-9.50;99.90
39347;DHT22;26262;49.836;6.632;2022-12-18T06:33:41;-9.70;99.90
39347;DHT22;26262;49.836;6.632;2022-12-18T06:36:09;-10.10;99.90
39347;DHT22;26262;49.836;6.632;2022-12-18T06:38:37;-9.90;99.90
39347;DHT22;26262;49.836;6.632;2022-12-18T06:41:10;-9.90;99.90
39347;DHT22;26262;49.836;6.632;2022-12-18T06:43:36;-9.80;99.90
39347;DHT22;26262;49.836;6.632;2022-12-18T06:46:03;-9.70;99.90
39347;DHT22;26262;49.836;6.632;2022-12-18T06:48:29;-9.60;99.90
39347;DHT22;26262;49.836;6.632;2022-12-18T06:50:55;-9.60;99.90
39347;DHT22;26262;49.836;6.632;2022-12-18T06:53:21;-9.60;99.90
39347;DHT22;26262;49.836;6.632;2022-12-18T06:55:47;-10.00;99.90
39347;DHT22;26262;49.836;6.632;2022-12-18T06:58:13;-10.10;99.90
39347;DHT22;26262;49.836;6.632;2022-12-18T07:00:38;-10.10;99.90
39347;DHT22;26262;49.836;6.632;2022-12-18T07:03:04;-10.10;99.90
39347;DHT22;26262;49.836;6.632;2022-12-18T07:05:29;-10.00;99.90
39347;DHT22;26262;49.836;6.632;2022-12-18T07:07:55;-9.90;99.90
39347;DHT22;26262;49.836;6.632;2022-12-18T07:10:21;-9.80;99.90
39347;DHT22;26262;49.836;6.632;2022-12-18T07:12:46;-9.80;99.90
39347;DHT22;26262;49.836;6.632;2022-12-18T07:15:12;-9.70;99.90
39347;DHT22;26262;49.836;6.632;2022-12-18T07:17:37;-9.70;99.90
39347;DHT22;26262;49.836;6.632;2022-12-18T07:20:03;-9.70;99.90
39347;DHT22;26262;49.836;6.632;2022-12-18T07:22:29;-9.70;99.90
39347;DHT22;26262;49.836;6.632;2022-12-18T07:24:54;-9.70;99.90
39347;DHT22;26262;49.836;6.632;2022-12-18T07:27:20;-9.80;99.90
39347;DHT22;26262;49.836;6.632;2022-12-18T07:29:46;-9.80;99.90
39347;DHT22;26262;49.836;6.632;2022-12-18T07:32:11;-9.70;99.90
39347;DHT22;26262;49.836;6.632;2022-12-18T07:34:37;-9.70;99.90
39347;DHT22;26262;49.836;6.632;2022-12-18T07:37:02;-9.60;99.90
39347;DHT22;26262;49.836;6.632;2022-12-18T07:39:28;-9.60;99.90
39347;DHT22;26262;49.836;6.632;2022-12-18T07:41:53;-9.50;99.90
39347;DHT22;26262;49.836;6.632;2022-12-18T07:44:38;-9.50;99.90
39347;DHT22;26262;49.836;6.632;2022-12-18T07:47:04;-9.50;99.90
39347;DHT22;26262;49.836;6.632;2022-12-18T07:49:29;-9.70;99.90
39347;DHT22;26262;49.836;6.632;2022-12-18T07:51:56;-9.70;99.90
39347;DHT22;26262;49.836;6.632;2022-12-18T07:54:23;-9.60;99.90
39347;DHT22;26262;49.836;6.632;2022-12-18T07:56:48;-9.50;99.90
39347;DHT22;26262;49.836;6.632;2022-12-18T07:59:14;-9.50;99.90
39347;DHT22;26262;49.836;6.632;2022-12-18T08:01:40;-9.50;99.90
39347;DHT22;26262;49.836;6.632;2022-12-18T08:04:05;-9.40;99.90
39347;DHT22;26262;49.836;6.632;2022-12-18T08:06:31;-9.40;99.90
39347;DHT22;26262;49.836;6.632;2022-12-18T08:08:56;-9.40;99.90
39347;DHT22;26262;49.836;6.632;2022-12-18T08:11:25;-9.40;99.90
39347;DHT22;26262;49.836;6.632;2022-12-18T08:13:51;-9.40;99.90
39347;DHT22;26262;49.836;6.632;2022-12-18T08:16:17;-9.30;99.90
39347;DHT22;26262;49.836;6.632;2022-12-18T08:18:42;-9.50;99.90
39347;DHT22;26262;49.836;6.632;2022-12-18T08:21:23;-9.90;99.90
39347;DHT22;26262;49.836;6.632;2022-12-18T08:23:53;-10.00;99.90
39347;DHT22;26262;49.836;6.632;2022-12-18T08:26:19;-9.90;99.90
39347;DHT22;26262;49.836;6.632;2022-12-18T08:28:45;-9.80;99.90
39347;DHT22;26262;49.836;6.632;2022-12-18T08:31:10;-9.60;99.90
39347;DHT22;26262;49.836;6.632;2022-12-18T08:33:37;-9.50;99.90
39347;DHT22;26262;49.836;6.632;2022-12-18T08:36:04;-9.40;99.90
39347;DHT22;26262;49.836;6.632;2022-12-18T08:38:30;-9.40;99.90
39347;DHT22;26262;49.836;6.632;2022-12-18T08:41:16;-9.40;99.90
39347;DHT22;26262;49.836;6.632;2022-12-18T08:43:42;-9.50;99.90
39347;DHT22;26262;49.836;6.632;2022-12-18T08:46:30;-9.80;99.90
39347;DHT22;26262;49.836;6.632;2022-12-18T08:48:56;-9.90;99.90
39347;DHT22;26262;49.836;6.632;2022-12-18T08:51:22;-9.80;99.90
39347;DHT22;26262;49.836;6.632;2022-12-18T08:53:47;-9.60;99.90
39347;DHT22;26262;49.836;6.632;2022-12-18T08:56:13;-9.50;99.90
39347;DHT22;26262;49.836;6.632;2022-12-18T08:58:40;-9.60;99.90
39347;DHT22;26262;49.836;6.632;2022-12-18T09:01:08;-9.50;99.90
39347;DHT22;26262;49.836;6.632;2022-12-18T09:03:35;-9.30;99.90
39347;DHT22;26262;49.836;6.632;2022-12-18T09:06:00;-9.30;99.90
39347;DHT22;26262;49.836;6.632;2022-12-18T09:08:26;-9.50;99.90
39347;DHT22;26262;49.836;6.632;2022-12-18T09:10:52;-9.70;99.90
39347;DHT22;26262;49.836;6.632;2022-12-18T09:13:18;-9.60;99.90
39347;DHT22;26262;49.836;6.632;2022-12-18T09:15:46;-9.50;99.90
39347;DHT22;26262;49.836;6.632;2022-12-18T09:18:13;-9.60;99.90
39347;DHT22;26262;49.836;6.632;2022-12-18T09:20:39;-9.60;99.90
39347;DHT22;26262;49.836;6.632;2022-12-18T09:23:06;-9.60;99.90
39347;DHT22;26262;49.836;6.632;2022-12-18T09:25:32;-9.40;99.90
39347;DHT22;26262;49.836;6.632;2022-12-18T09:28:06;-9.20;99.90
39347;DHT22;26262;49.836;6.632;2022-12-18T09:30:32;-9.00;99.90
39347;DHT22;26262;49.836;6.632;2022-12-18T09:33:00;-8.90;99.90
39347;DHT22;26262;49.836;6.632;2022-12-18T09:35:25;-9.00;99.90
39347;DHT22;26262;49.836;6.632;2022-12-18T09:37:53;-9.10;99.90
39347;DHT22;26262;49.836;6.632;2022-12-18T09:40:21;-8.90;99.90
39347;DHT22;26262;49.836;6.632;2022-12-18T09:43:04;-8.80;99.90
39347;DHT22;26262;49.836;6.632;2022-12-18T09:45:41;-8.90;99.90
39347;DHT22;26262;49.836;6.632;2022-12-18T09:48:19;-8.90;99.90
39347;DHT22;26262;49.836;6.632;2022-12-18T09:50:47;-8.90;99.90
39347;DHT22;26262;49.836;6.632;2022-12-18T09:53:21;-8.90;99.90
39347;DHT22;26262;49.836;6.632;2022-12-18T09:55:51;-8.70;99.90
39347;DHT22;26262;49.836;6.632;2022-12-18T09:58:41;-8.50;99.90
39347;DHT22;26262;49.836;6.632;2022-12-18T10:01:15;-8.30;99.90
39347;DHT22;26262;49.836;6.632;2022-12-18T10:03:43;-8.30;99.90
39347;DHT22;26262;49.836;6.632;2022-12-18T10:06:15;-8.10;99.90
39347;DHT22;26262;49.836;6.632;2022-12-18T10:11:20;-8.00;99.90
39347;DHT22;26262;49.836;6.632;2022-12-18T10:27:40;-7.60;99.90
39347;DHT22;26262;49.836;6.632;2022-12-18T10:30:13;-7.50;99.90
39347;DHT22;26262;49.836;6.632;2022-12-18T10:32:40;-7.40;99.90
39347;DHT22;26262;49.836;6.632;2022-12-18T10:35:15;-7.30;99.90
39347;DHT22;26262;49.836;6.632;2022-12-18T10:38:03;-7.10;99.90
39347;DHT22;26262;49.836;6.632;2022-12-18T10:40:29;-7.00;99.90
39347;DHT22;26262;49.836;6.632;2022-12-18T10:43:10;-6.90;99.90
39347;DHT22;26262;49.836;6.632;2022-12-18T10:45:36;-6.80;99.90
39347;DHT22;26262;49.836;6.632;2022-12-18T10:48:03;-6.80;99.90
39347;DHT22;26262;49.836;6.632;2022-12-18T10:50:32;-6.80;99.90
39347;DHT22;26262;49.836;6.632;2022-12-18T10:53:00;-6.80;99.90
39347;DHT22;26262;49.836;6.632;2022-12-18T10:55:37;-6.60;99.90
39347;DHT22;26262;49.836;6.632;2022-12-18T10:58:16;-6.40;99.90
39347;DHT22;26262;49.836;6.632;2022-12-18T11:01:02;-6.20;99.90
39347;DHT22;26262;49.836;6.632;2022-12-18T11:03:45;-6.00;99.90
39347;DHT22;26262;49.836;6.632;2022-12-18T11:06:19;-5.90;99.90
39347;DHT22;26262;49.836;6.632;2022-12-18T11:09:22;-5.80;99.90
39347;DHT22;26262;49.836;6.632;2022-12-18T11:11:52;-5.70;99.90
39347;DHT22;26262;49.836;6.632;2022-12-18T11:14:42;-5.50;99.90
39347;DHT22;26262;49.836;6.632;2022-12-18T11:17:22;-5.50;99.90
39347;DHT22;26262;49.836;6.632;2022-12-18T11:19:55;-5.40;99.90
39347;DHT22;26262;49.836;6.632;2022-12-18T11:22:27;-5.30;99.90
39347;DHT22;26262;49.836;6.632;2022-12-18T11:24:57;-5.20;99.90
39347;DHT22;26262;49.836;6.632;2022-12-18T11:27:23;-5.10;99.90
39347;DHT22;26262;49.836;6.632;2022-12-18T11:29:50;-5.00;99.90
39347;DHT22;26262;49.836;6.632;2022-12-18T11:34:58;-5.00;99.90
39347;DHT22;26262;49.836;6.632;2022-12-18T11:37:24;-4.90;99.90
39347;DHT22;26262;49.836;6.632;2022-12-18T11:40:06;-4.70;99.90
39347;DHT22;26262;49.836;6.632;2022-12-18T11:42:48;-4.50;99.90
39347;DHT22;26262;49.836;6.632;2022-12-18T11:45:28;-4.30;99.90
39347;DHT22;26262;49.836;6.632;2022-12-18T11:48:06;-4.20;99.90
39347;DHT22;26262;49.836;6.632;2022-12-18T11:53:02;-3.90;99.90
39347;DHT22;26262;49.836;6.632;2022-12-18T12:01:42;-3.80;99.90
39347;DHT22;26262;49.836;6.632;2022-12-18T12:04:33;-3.80;99.90
39347;DHT22;26262;49.836;6.632;2022-12-18T12:10:01;-3.80;99.90
39347;DHT22;26262;49.836;6.632;2022-12-18T12:12:51;-3.70;99.90
39347;DHT22;26262;49.836;6.632;2022-12-18T12:15:40;-3.60;99.90
39347;DHT22;26262;49.836;6.632;2022-12-18T12:21:09;-3.60;99.90
39347;DHT22;26262;49.836;6.632;2022-12-18T12:23:51;-3.40;99.90
39347;DHT22;26262;49.836;6.632;2022-12-18T12:26:35;-3.40;99.90
39347;DHT22;26262;49.836;6.632;2022-12-18T12:29:25;-3.30;99.90
39347;DHT22;26262;49.836;6.632;2022-12-18T12:32:07;-3.30;99.90
39347;DHT22;26262;49.836;6.632;2022-12-18T12:35:12;-3.30;99.90
39347;DHT22;26262;49.836;6.632;2022-12-18T12:37:54;-3.20;99.90
39347;DHT22;26262;49.836;6.632;2022-12-18T12:40:26;-3.30;99.90
39347;DHT22;26262;49.836;6.632;2022-12-18T12:42:59;-3.20;99.90
39347;DHT22;26262;49.836;6.632;2022-12-18T12:45:59;-3.10;99.90
39347;DHT22;26262;49.836;6.632;2022-12-18T12:51:24;-3.20;99.90
39347;DHT22;26262;49.836;6.632;2022-12-18T12:53:52;-3.10;99.90
39347;DHT22;26262;49.836;6.632;2022-12-18T12:56:20;-3.00;99.90
39347;DHT22;26262;49.836;6.632;2022-12-18T13:04:05;-2.80;99.90
39347;DHT22;26262;49.836;6.632;2022-12-18T13:15:27;-2.70;99.90
39347;DHT22;26262;49.836;6.632;2022-12-18T13:31:02;-2.50;99.90
39347;DHT22;26262;49.836;6.632;2022-12-18T13:33:40;-2.60;99.90
39347;DHT22;26262;49.836;6.632;2022-12-18T13:36:29;-2.70;99.90
39347;DHT22;26262;49.836;6.632;2022-12-18T13:41:35;-2.70;99.90
39347;DHT22;26262;49.836;6.632;2022-12-18T13:44:24;-2.60;99.90
39347;DHT22;26262;49.836;6.632;2022-12-18T13:46:51;-2.50;99.90
39347;DHT22;26262;49.836;6.632;2022-12-18T13:49:39;-2.50;99.90
39347;DHT22;26262;49.836;6.632;2022-12-18T13:52:26;-2.50;99.90
39347;DHT22;26262;49.836;6.632;2022-12-18T13:54:53;-2.40;99.90
39347;DHT22;26262;49.836;6.632;2022-12-18T13:59:57;-2.40;99.90
39347;DHT22;26262;49.836;6.632;2022-12-18T14:02:25;-2.40;99.90
39347;DHT22;26262;49.836;6.632;2022-12-18T14:04:52;-2.40;99.90
39347;DHT22;26262;49.836;6.632;2022-12-18T14:07:23;-2.60;99.90
39347;DHT22;26262;49.836;6.632;2022-12-18T14:09:52;-2.60;99.90
39347;DHT22;26262;49.836;6.632;2022-12-18T14:12:22;-2.60;99.90
39347;DHT22;26262;49.836;6.632;2022-12-18T14:15:40;-2.70;99.90
39347;DHT22;26262;49.836;6.632;2022-12-18T14:20:52;-2.70;99.90
39347;DHT22;26262;49.836;6.632;2022-12-18T14:23:35;-2.70;99.90
39347;DHT22;26262;49.836;6.632;2022-12-18T14:26:17;-2.60;99.90
39347;DHT22;26262;49.836;6.632;2022-12-18T14:28:44;-2.60;99.90
39347;DHT22;26262;49.836;6.632;2022-12-18T14:31:21;-2.60;99.90
39347;DHT22;26262;49.836;6.632;2022-12-18T14:33:46;-2.50;99.90
39347;DHT22;26262;49.836;6.632;2022-12-18T14:36:20;-2.50;99.90
39347;DHT22;26262;49.836;6.632;2022-12-18T14:38:51;-2.50;99.90
39347;DHT22;26262;49.836;6.632;2022-12-18T14:41:18;-2.50;99.90
39347;DHT22;26262;49.836;6.632;2022-12-18T14:43:46;-2.60;99.90
39347;DHT22;26262;49.836;6.632;2022-12-18T14:46:35;-2.60;99.90
39347;DHT22;26262;49.836;6.632;2022-12-18T14:49:04;-2.80;99.90
39347;DHT22;26262;49.836;6.632;2022-12-18T14:51:33;-2.70;99.90
39347;DHT22;26262;49.836;6.632;2022-12-18T14:54:01;-2.60;99.90
39347;DHT22;26262;49.836;6.632;2022-12-18T14:56:41;-2.60;99.90
39347;DHT22;26262;49.836;6.632;2022-12-18T14:59:23;-2.50;99.90
39347;DHT22;26262;49.836;6.632;2022-12-18T15:01:59;-2.60;99.90
39347;DHT22;26262;49.836;6.632;2022-12-18T15:04:35;-2.60;99.90
39347;DHT22;26262;49.836;6.632;2022-12-18T15:09:36;-2.60;99.90
39347;DHT22;26262;49.836;6.632;2022-12-18T15:12:02;-2.60;99.90
39347;DHT22;26262;49.836;6.632;2022-12-18T15:14:31;-2.80;99.90
39347;DHT22;26262;49.836;6.632;2022-12-18T15:16:58;-3.00;99.90
39347;DHT22;26262;49.836;6.632;2022-12-18T15:19:42;-2.90;99.90
39347;DHT22;26262;49.836;6.632;2022-12-18T15:22:34;-2.80;99.90
39347;DHT22;26262;49.836;6.632;2022-12-18T15:25:02;-2.80;99.90
39347;DHT22;26262;49.836;6.632;2022-12-18T15:27:33;-2.90;99.90
39347;DHT22;26262;49.836;6.632;2022-12-18T15:32:39;-2.90;99.90
39347;DHT22;26262;49.836;6.632;2022-12-18T15:35:15;-2.90;99.90
39347;DHT22;26262;49.836;6.632;2022-12-18T15:37:41;-2.80;99.90
39347;DHT22;26262;49.836;6.632;2022-12-18T15:40:11;-2.80;99.90
39347;DHT22;26262;49.836;6.632;2022-12-18T15:42:37;-2.80;99.90
39347;DHT22;26262;49.836;6.632;2022-12-18T15:45:21;-2.80;99.90
39347;DHT22;26262;49.836;6.632;2022-12-18T15:47:47;-2.80;99.90
39347;DHT22;26262;49.836;6.632;2022-12-18T15:50:12;-2.80;99.90
39347;DHT22;26262;49.836;6.632;2022-12-18T15:52:43;-3.00;99.90
39347;DHT22;26262;49.836;6.632;2022-12-18T15:55:13;-3.30;99.90
39347;DHT22;26262;49.836;6.632;2022-12-18T15:57:57;-3.30;99.90
39347;DHT22;26262;49.836;6.632;2022-12-18T16:00:23;-3.40;99.90
39347;DHT22;26262;49.836;6.632;2022-12-18T16:02:49;-3.30;99.90
39347;DHT22;26262;49.836;6.632;2022-12-18T16:05:16;-3.30;99.90
39347;DHT22;26262;49.836;6.632;2022-12-18T16:07:42;-3.20;99.90
39347;DHT22;26262;49.836;6.632;2022-12-18T16:10:08;-3.20;99.90
39347;DHT22;26262;49.836;6.632;2022-12-18T16:12:34;-3.30;99.90
39347;DHT22;26262;49.836;6.632;2022-12-18T16:15:00;-3.40;99.90
39347;DHT22;26262;49.836;6.632;2022-12-18T16:17:26;-3.40;99.90
39347;DHT22;26262;49.836;6.632;2022-12-18T16:19:51;-3.30;99.90
39347;DHT22;26262;49.836;6.632;2022-12-18T16:22:28;-3.20;99.90
39347;DHT22;26262;49.836;6.632;2022-12-18T16:24:55;-3.20;99.90
39347;DHT22;26262;49.836;6.632;2022-12-18T16:27:21;-3.30;99.90
39347;DHT22;26262;49.836;6.632;2022-12-18T16:29:48;-3.30;99.90
39347;DHT22;26262;49.836;6.632;2022-12-18T16:32:17;-3.20;99.90
39347;DHT22;26262;49.836;6.632;2022-12-18T16:34:43;-3.20;99.90
39347;DHT22;26262;49.836;6.632;2022-12-18T16:37:10;-3.20;99.90
39347;DHT22;26262;49.836;6.632;2022-12-18T16:39:37;-3.40;99.90
39347;DHT22;26262;49.836;6.632;2022-12-18T16:42:23;-3.40;99.90
39347;DHT22;26262;49.836;6.632;2022-12-18T16:44:49;-3.30;99.90
39347;DHT22;26262;49.836;6.632;2022-12-18T16:47:16;-3.40;99.90
39347;DHT22;26262;49.836;6.632;2022-12-18T16:49:42;-3.30;99.90
39347;DHT22;26262;49.836;6.632;2022-12-18T16:52:10;-3.30;99.90
39347;DHT22;26262;49.836;6.632;2022-12-18T16:54:35;-3.40;99.90
39347;DHT22;26262;49.836;6.632;2022-12-18T16:57:02;-3.40;99.90
39347;DHT22;26262;49.836;6.632;2022-12-18T16:59:29;-3.40;99.90
39347;DHT22;26262;49.836;6.632;2022-12-18T17:01:55;-3.40;99.90
39347;DHT22;26262;49.836;6.632;2022-12-18T17:04:21;-3.40;99.90
39347;DHT22;26262;49.836;6.632;2022-12-18T17:06:47;-3.40;99.90
39347;DHT22;26262;49.836;6.632;2022-12-18T17:09:19;-3.40;99.90
39347;DHT22;26262;49.836;6.632;2022-12-18T17:11:51;-3.30;99.90
39347;DHT22;26262;49.836;6.632;2022-12-18T17:14:20;-3.40;99.90
39347;DHT22;26262;49.836;6.632;2022-12-18T17:16:46;-3.40;99.90
39347;DHT22;26262;49.836;6.632;2022-12-18T17:19:13;-3.40;99.90
39347;DHT22;26262;49.836;6.632;2022-12-18T17:21:39;-3.50;99.90
39347;DHT22;26262;49.836;6.632;2022-12-18T17:24:04;-3.50;99.90
39347;DHT22;26262;49.836;6.632;2022-12-18T17:26:30;-3.50;99.90
39347;DHT22;26262;49.836;6.632;2022-12-18T17:28:56;-3.50;99.90